createdAt,value
2023-03-03T00:02:17.571Z,3.05
2023-03-03T00:04:45.865Z,1.70
2023-03-03T00:07:16.333Z,1.13
2023-03-03T00:09:44.570Z,3.22
2023-03-03T00:12:26.595Z,3.95
2023-03-03T00:14:55.028Z,2.45
2023-03-03T00:17:26.446Z,3.53
2023-03-03T00:19:55.427Z,1.92
2023-03-03T00:22:37.639Z,4.32
2023-03-03T00:25:32.788Z,7.05
2023-03-03T00:28:31.995Z,3.08
2023-03-03T00:31:02.843Z,2.25
2023-03-03T00:33:47.050Z,6.50
2023-03-03T00:36:18.017Z,5.20
2023-03-03T00:38:47.081Z,4.13
2023-03-03T00:41:25.206Z,7.25
2023-03-03T00:43:54.296Z,3.97
2023-03-03T00:46:24.479Z,4.68
2023-03-03T00:48:53.703Z,4.47
2023-03-03T00:51:24.660Z,3.55
2023-03-03T00:53:52.922Z,4.25
2023-03-03T00:56:21.524Z,3.15
2023-03-03T00:58:50.476Z,6.75
2023-03-03T01:01:19.959Z,4.13
2023-03-03T01:03:48.351Z,4.30
2023-03-03T01:06:17.801Z,5.25
2023-03-03T01:08:46.062Z,5.82
2023-03-03T01:11:21.097Z,5.35
2023-03-03T01:13:51.074Z,7.30
2023-03-03T01:16:19.621Z,8.80
2023-03-03T01:18:48.705Z,5.80
2023-03-03T01:21:17.016Z,5.47
2023-03-03T01:23:45.615Z,5.30
2023-03-03T01:26:13.903Z,4.80
2023-03-03T01:28:42.230Z,7.03
2023-03-03T01:31:10.808Z,7.32
2023-03-03T01:33:39.432Z,5.20
2023-03-03T01:36:08.638Z,9.75
2023-03-03T01:38:38.321Z,5.72
2023-03-03T01:41:07.235Z,5.82
2023-03-03T01:43:35.515Z,7.72
2023-03-03T01:46:03.739Z,8.90
2023-03-03T01:48:45.833Z,5.88
2023-03-03T01:51:23.603Z,7.88
2023-03-03T01:53:58.135Z,6.82
2023-03-03T01:56:27.790Z,5.05
2023-03-03T01:59:23.876Z,6.63
2023-03-03T02:01:52.331Z,9.73
2023-03-03T02:04:22.873Z,8.45
2023-03-03T02:07:02.778Z,7.13
2023-03-03T02:09:46.422Z,6.40
2023-03-03T02:12:18.492Z,8.20
2023-03-03T02:14:50.428Z,7.80
2023-03-03T02:17:18.991Z,6.20
2023-03-03T02:20:12.042Z,5.65
2023-03-03T02:22:52.351Z,8.00
2023-03-03T02:25:40.287Z,5.80
2023-03-03T02:28:08.644Z,8.73
2023-03-03T02:30:40.234Z,7.88
2023-03-03T02:33:09.127Z,8.40
2023-03-03T02:35:39.848Z,6.15
2023-03-03T02:38:10.905Z,5.53
2023-03-03T02:40:44.155Z,8.68
2023-03-03T02:43:13.358Z,10.40
2023-03-03T02:45:46.152Z,7.43
2023-03-03T02:48:14.446Z,8.88
2023-03-03T02:50:42.725Z,9.93
2023-03-03T02:53:10.965Z,6.15
2023-03-03T02:55:39.507Z,9.55
2023-03-03T02:58:07.746Z,9.25
2023-03-03T03:00:35.972Z,9.32
2023-03-03T03:03:04.299Z,7.72
2023-03-03T03:05:32.548Z,7.72
2023-03-03T03:08:00.804Z,8.45
2023-03-03T03:10:29.045Z,10.18
2023-03-03T03:12:57.270Z,9.07
2023-03-03T03:15:25.577Z,8.52
2023-03-03T03:17:54.015Z,7.72
2023-03-03T03:20:22.290Z,6.68
2023-03-03T03:22:50.941Z,6.15
2023-03-03T03:25:19.165Z,6.13
2023-03-03T03:27:47.485Z,7.70
2023-03-03T03:30:16.155Z,9.25
2023-03-03T03:32:44.395Z,8.35
2023-03-03T03:35:12.706Z,7.82
2023-03-03T03:37:41.336Z,6.10
2023-03-03T03:40:10.254Z,7.13
2023-03-03T03:42:40.435Z,7.90
2023-03-03T03:45:09.214Z,7.82
2023-03-03T03:47:37.417Z,8.05
2023-03-03T03:50:05.969Z,7.57
2023-03-03T03:52:34.382Z,6.43
2023-03-03T03:55:02.869Z,9.68
2023-03-03T03:57:31.110Z,7.97
2023-03-03T03:59:59.332Z,8.52
2023-03-03T04:02:27.604Z,11.93
2023-03-03T04:04:55.902Z,5.45
2023-03-03T04:07:24.122Z,6.60
2023-03-03T04:09:52.734Z,4.43
2023-03-03T04:12:21.118Z,8.35
2023-03-03T04:14:49.360Z,11.43
2023-03-03T04:17:22.049Z,11.02
2023-03-03T04:19:56.257Z,7.68
2023-03-03T04:22:24.456Z,10.35
2023-03-03T04:24:52.777Z,11.82
2023-03-03T04:27:20.999Z,5.82
2023-03-03T04:29:49.341Z,8.10
2023-03-03T04:32:19.331Z,11.57
2023-03-03T04:34:53.070Z,7.53
2023-03-03T04:37:26.763Z,8.40
2023-03-03T04:39:54.962Z,10.25
2023-03-03T04:42:23.185Z,8.25
2023-03-03T04:44:51.491Z,10.35
2023-03-03T04:47:19.852Z,7.50
2023-03-03T04:49:48.218Z,6.35
2023-03-03T04:52:16.541Z,10.13
2023-03-03T04:54:44.806Z,5.57
2023-03-03T04:57:13.074Z,9.07
2023-03-03T04:59:41.329Z,6.40
2023-03-03T05:02:09.580Z,10.55
2023-03-03T05:04:38.259Z,8.30
2023-03-03T05:07:06.507Z,6.15
2023-03-03T05:09:34.725Z,5.43
2023-03-03T05:12:02.933Z,8.35
2023-03-03T05:14:32.267Z,7.22
2023-03-03T05:17:00.803Z,7.03
2023-03-03T05:19:29.461Z,5.43
2023-03-03T05:21:59.656Z,6.55
2023-03-03T05:24:27.907Z,6.95
2023-03-03T05:26:56.179Z,9.35
2023-03-03T05:29:24.692Z,6.45
2023-03-03T05:31:52.976Z,7.60
2023-03-03T05:34:21.258Z,9.18
2023-03-03T05:36:49.449Z,11.85
2023-03-03T05:39:17.649Z,9.60
2023-03-03T05:41:46.014Z,5.15
2023-03-03T05:44:14.356Z,8.98
2023-03-03T05:46:43.460Z,8.48
2023-03-03T05:49:11.706Z,8.55
2023-03-03T05:51:39.902Z,5.20
2023-03-03T05:54:08.144Z,10.73
2023-03-03T05:56:36.515Z,5.15
2023-03-03T05:59:04.808Z,8.93
2023-03-03T06:01:33.748Z,16.35
2023-03-03T06:04:02.047Z,20.30
2023-03-03T06:06:30.243Z,19.92
2023-03-03T06:08:58.382Z,15.68
2023-03-03T06:11:26.669Z,14.75
2023-03-03T06:13:54.963Z,10.52
2023-03-03T06:16:23.272Z,7.60
2023-03-03T06:18:51.687Z,11.63
2023-03-03T06:21:19.843Z,14.32
2023-03-03T06:23:48.079Z,12.90
2023-03-03T06:26:16.697Z,11.45
2023-03-03T06:28:44.879Z,14.50
2023-03-03T06:31:13.125Z,13.05
2023-03-03T06:33:43.052Z,10.52
2023-03-03T06:36:11.952Z,9.75
2023-03-03T06:38:40.186Z,10.15
2023-03-03T06:41:09.392Z,8.68
2023-03-03T06:43:38.209Z,10.55
2023-03-03T06:46:06.892Z,10.63
2023-03-03T06:48:35.367Z,10.00
2023-03-03T06:51:11.811Z,10.48
2023-03-03T06:53:40.046Z,12.73
2023-03-03T06:56:10.697Z,9.05
2023-03-03T06:58:38.905Z,9.25
2023-03-03T07:01:18.234Z,9.73
2023-03-03T07:03:47.505Z,8.85
2023-03-03T07:06:27.584Z,6.07
2023-03-03T07:08:58.537Z,8.63
2023-03-03T07:11:26.786Z,9.68
2023-03-03T07:13:56.823Z,7.40
2023-03-03T07:16:29.354Z,7.43
2023-03-03T07:19:06.163Z,7.35
2023-03-03T07:21:37.325Z,6.38
2023-03-03T07:24:28.265Z,8.15
2023-03-03T07:27:27.157Z,9.68
2023-03-03T07:30:03.781Z,7.10
2023-03-03T07:32:44.096Z,9.18
2023-03-03T07:35:33.900Z,10.13
2023-03-03T07:38:02.434Z,8.15
2023-03-03T07:40:36.272Z,9.70
2023-03-03T07:43:37.174Z,8.65
2023-03-03T07:46:17.496Z,9.00
2023-03-03T07:48:45.875Z,10.82
2023-03-03T07:51:23.340Z,9.00
2023-03-03T07:53:52.524Z,10.02
2023-03-03T07:56:35.382Z,8.48
2023-03-03T07:59:17.842Z,11.40
2023-03-03T08:01:50.517Z,10.88
2023-03-03T08:04:25.415Z,7.07
2023-03-03T08:06:56.199Z,8.63
2023-03-03T08:09:35.557Z,7.78
2023-03-03T08:12:26.882Z,7.75
2023-03-03T08:14:56.658Z,7.32
2023-03-03T08:17:37.801Z,9.18
2023-03-03T08:20:40.972Z,9.00
2023-03-03T08:23:09.169Z,7.47
2023-03-03T08:25:37.399Z,9.77
2023-03-03T08:28:06.180Z,8.45
2023-03-03T08:30:34.590Z,9.00
2023-03-03T08:33:02.808Z,10.13
2023-03-03T08:35:31.125Z,8.43
2023-03-03T08:37:59.331Z,8.70
2023-03-03T08:40:27.644Z,9.60
2023-03-03T08:42:55.938Z,8.77
2023-03-03T08:45:24.152Z,6.97
2023-03-03T08:47:52.396Z,8.30
2023-03-03T08:50:20.959Z,9.90
2023-03-03T08:52:49.827Z,8.60
2023-03-03T08:55:18.137Z,7.63
2023-03-03T08:57:46.356Z,6.05
2023-03-03T09:00:17.595Z,7.22
2023-03-03T09:02:45.921Z,7.40
2023-03-03T09:05:14.918Z,10.27
2023-03-03T09:07:43.647Z,8.65
2023-03-03T09:10:15.053Z,7.45
2023-03-03T09:12:49.537Z,6.40
2023-03-03T09:15:20.453Z,11.43
2023-03-03T09:17:49.942Z,8.43
2023-03-03T09:20:27.054Z,8.57
2023-03-03T09:22:56.308Z,9.57
2023-03-03T09:25:37.720Z,8.02
2023-03-03T09:28:25.365Z,7.45
2023-03-03T09:30:55.553Z,7.68
2023-03-03T09:33:41.439Z,7.03
2023-03-03T09:36:29.415Z,8.23
2023-03-03T09:38:59.061Z,8.98
2023-03-03T09:41:42.719Z,6.47
2023-03-03T09:44:22.949Z,6.80
2023-03-03T09:46:51.432Z,7.75
2023-03-03T09:49:23.162Z,8.75
2023-03-03T09:52:21.055Z,9.23
2023-03-03T09:55:02.916Z,6.13
2023-03-03T09:57:43.143Z,8.25
2023-03-03T10:00:34.569Z,5.85
2023-03-03T10:03:17.685Z,6.88
2023-03-03T10:06:02.700Z,10.43
2023-03-03T10:09:04.661Z,7.18
2023-03-03T10:12:02.747Z,8.48
2023-03-03T10:15:08.015Z,8.43
2023-03-03T10:17:53.561Z,9.07
2023-03-03T10:20:51.080Z,8.32
2023-03-03T10:23:46.423Z,7.95
2023-03-03T10:26:44.303Z,7.57
2023-03-03T10:29:30.460Z,10.52
2023-03-03T10:32:10.988Z,6.35
2023-03-03T10:34:48.375Z,10.15
2023-03-03T10:37:52.022Z,8.82
2023-03-03T10:40:41.180Z,9.05
2023-03-03T10:43:31.791Z,7.88
2023-03-03T10:46:25.153Z,8.15
2023-03-03T10:49:31.240Z,7.38
2023-03-03T10:52:08.389Z,5.78
2023-03-03T10:55:05.405Z,9.68
2023-03-03T10:57:33.519Z,6.38
2023-03-03T11:00:16.828Z,7.18
2023-03-03T11:03:13.820Z,6.53
2023-03-03T11:05:51.132Z,6.90
2023-03-03T11:08:43.480Z,7.07
2023-03-03T11:11:57.563Z,10.90
2023-03-03T11:14:25.820Z,8.13
2023-03-03T11:17:12.301Z,6.63
2023-03-03T11:20:14.994Z,7.95
2023-03-03T11:22:55.653Z,9.50
2023-03-03T11:25:48.297Z,7.20
2023-03-03T11:28:57.931Z,7.45
2023-03-03T11:31:58.017Z,11.65
2023-03-03T11:34:51.969Z,5.57
2023-03-03T11:37:35.554Z,9.10
2023-03-03T11:40:17.971Z,5.95
2023-03-03T11:42:53.218Z,9.77
2023-03-03T11:45:28.576Z,9.07
2023-03-03T11:48:04.412Z,7.75
2023-03-03T11:51:07.704Z,6.00
2023-03-03T11:53:49.182Z,5.90
2023-03-03T11:56:34.619Z,8.55
2023-03-03T11:59:43.230Z,6.57
2023-03-03T12:02:24.541Z,8.43
2023-03-03T12:05:01.277Z,5.97
2023-03-03T12:08:20.310Z,5.85
2023-03-03T12:10:56.541Z,7.60
2023-03-03T12:13:27.556Z,5.85
2023-03-03T12:16:13.620Z,7.93
2023-03-03T12:18:56.356Z,6.85
2023-03-03T12:21:45.401Z,7.63
2023-03-03T12:24:25.781Z,6.57
2023-03-03T12:27:07.786Z,7.50
2023-03-03T12:29:41.755Z,7.93
2023-03-03T12:32:44.264Z,9.50
2023-03-03T12:35:32.806Z,6.47
2023-03-03T12:38:21.671Z,6.80
2023-03-03T12:41:21.190Z,7.15
2023-03-03T12:44:07.506Z,6.90
2023-03-03T12:46:42.855Z,7.45
2023-03-03T12:49:11.187Z,8.15
2023-03-03T12:51:48.476Z,7.55
2023-03-03T12:54:38.859Z,5.38
2023-03-03T12:57:36.856Z,8.55
2023-03-03T13:00:17.213Z,6.75
2023-03-03T13:03:11.395Z,7.07
2023-03-03T13:06:07.855Z,5.45
2023-03-03T13:08:55.130Z,6.13
2023-03-03T13:11:44.095Z,7.97
2023-03-03T13:14:34.017Z,7.30
2023-03-03T13:17:23.354Z,8.07
2023-03-03T13:20:20.998Z,6.57
2023-03-03T13:23:05.821Z,6.65
2023-03-03T13:26:01.880Z,4.57
2023-03-03T13:28:33.203Z,8.93
2023-03-03T13:31:33.334Z,7.20
2023-03-03T13:34:03.207Z,6.15
2023-03-03T13:36:43.876Z,5.50
2023-03-03T13:39:27.083Z,5.22
2023-03-03T13:42:28.550Z,9.30
2023-03-03T13:44:58.542Z,6.93
2023-03-03T13:47:35.629Z,7.50
2023-03-03T13:50:23.627Z,7.07
2023-03-03T13:53:01.773Z,9.20
2023-03-03T13:55:48.607Z,8.30
2023-03-03T13:58:43.603Z,8.63
2023-03-03T14:01:24.521Z,6.30
2023-03-03T14:04:01.862Z,8.55
2023-03-03T14:06:31.608Z,11.40
2023-03-03T14:09:23.907Z,9.93
2023-03-03T14:12:22.765Z,4.15
2023-03-03T14:15:27.553Z,8.50
2023-03-03T14:18:07.554Z,7.45
2023-03-03T14:20:57.516Z,9.45
2023-03-03T14:23:47.171Z,8.52
2023-03-03T14:26:16.388Z,8.90
2023-03-03T14:28:47.921Z,7.05
2023-03-03T14:31:41.093Z,5.30
2023-03-03T14:34:24.629Z,5.82
2023-03-03T14:36:59.308Z,7.13
2023-03-03T14:39:38.907Z,7.38
2023-03-03T14:42:16.679Z,5.00
2023-03-03T14:44:47.693Z,6.45
2023-03-03T14:47:25.652Z,4.85
2023-03-03T14:50:00.949Z,8.10
2023-03-03T14:52:31.832Z,6.30
2023-03-03T14:55:05.866Z,8.32
2023-03-03T14:57:57.210Z,9.05
2023-03-03T15:00:25.414Z,4.95
2023-03-03T15:02:53.672Z,6.80
2023-03-03T15:05:27.355Z,9.57
2023-03-03T15:08:06.276Z,7.60
2023-03-03T15:10:46.041Z,6.15
2023-03-03T15:13:24.524Z,9.80
2023-03-03T15:16:03.761Z,10.45
2023-03-03T15:18:34.385Z,7.38
2023-03-03T15:21:17.381Z,8.90
2023-03-03T15:24:00.443Z,8.45
2023-03-03T15:26:34.531Z,11.10
2023-03-03T15:29:14.329Z,12.82
2023-03-03T15:32:00.620Z,7.55
2023-03-03T15:34:44.756Z,8.48
2023-03-03T15:37:35.838Z,9.98
2023-03-03T15:40:28.145Z,5.68
2023-03-03T15:43:14.587Z,15.98
2023-03-03T15:45:57.036Z,10.95
2023-03-03T15:49:07.959Z,8.00
2023-03-03T15:52:30.152Z,8.55
2023-03-03T15:55:20.775Z,5.35
2023-03-03T15:58:03.494Z,9.90
2023-03-03T16:00:39.597Z,11.57
2023-03-03T16:03:20.829Z,10.57
2023-03-03T16:06:10.102Z,8.18
2023-03-03T16:08:53.101Z,10.70
2023-03-03T16:11:35.759Z,12.88
2023-03-03T16:14:41.114Z,9.63
2023-03-03T16:17:32.904Z,6.93
2023-03-03T16:20:08.634Z,8.32
2023-03-03T16:22:51.826Z,7.88
2023-03-03T16:25:46.615Z,9.65
2023-03-03T16:28:26.988Z,7.68
2023-03-03T16:31:24.167Z,8.00
2023-03-03T16:34:07.315Z,8.20
2023-03-03T16:36:48.033Z,12.10
2023-03-03T16:39:34.396Z,9.20
2023-03-03T16:42:13.418Z,9.10
2023-03-03T16:45:05.326Z,7.53
2023-03-03T16:48:06.977Z,5.85
2023-03-03T16:50:56.154Z,12.25
2023-03-03T16:53:44.819Z,7.60
2023-03-03T16:56:37.324Z,7.20
2023-03-03T16:59:23.588Z,9.73
2023-03-03T17:02:27.700Z,7.55
2023-03-03T17:05:15.349Z,7.25
2023-03-03T17:08:03.367Z,11.18
2023-03-03T17:10:58.237Z,6.22
2023-03-03T17:14:07.243Z,10.02
2023-03-03T17:16:50.034Z,6.63
2023-03-03T17:19:38.374Z,8.85
2023-03-03T17:22:43.576Z,6.43
2023-03-03T17:25:31.545Z,9.07
2023-03-03T17:28:17.786Z,9.05
2023-03-03T17:31:09.020Z,7.07
2023-03-03T17:33:58.653Z,5.60
2023-03-03T17:37:14.120Z,6.78
2023-03-03T17:40:06.859Z,7.72
2023-03-03T17:42:46.615Z,8.63
2023-03-03T17:45:16.812Z,8.68
2023-03-03T17:48:01.291Z,8.90
2023-03-03T17:50:32.519Z,4.80
2023-03-03T17:53:36.915Z,6.43
2023-03-03T17:56:25.590Z,4.90
2023-03-03T17:59:14.567Z,6.93
2023-03-03T18:02:39.172Z,5.88
2023-03-03T18:05:26.814Z,5.10
2023-03-03T18:08:14.808Z,4.30
2023-03-03T18:10:48.666Z,6.40
2023-03-03T18:13:40.636Z,6.57
2023-03-03T18:16:28.291Z,6.82
2023-03-03T18:19:22.386Z,5.70
2023-03-03T18:21:55.634Z,6.28
2023-03-03T18:24:26.736Z,4.10
2023-03-03T18:26:56.583Z,5.65
2023-03-03T18:29:30.138Z,5.35
2023-03-03T18:32:03.704Z,5.28
2023-03-03T18:34:38.316Z,5.45
2023-03-03T18:37:30.933Z,4.72
2023-03-03T18:40:28.061Z,4.95
2023-03-03T18:42:57.354Z,6.18
2023-03-03T18:45:28.296Z,5.38
2023-03-03T18:48:02.630Z,6.00
2023-03-03T18:50:45.590Z,5.78
2023-03-03T18:53:30.162Z,4.93
2023-03-03T18:56:01.310Z,7.53
2023-03-03T18:58:36.170Z,4.53
2023-03-03T19:01:11.474Z,4.22
2023-03-03T19:03:48.588Z,6.07
2023-03-03T19:06:53.673Z,7.50
2023-03-03T19:09:57.800Z,5.15
2023-03-03T19:12:52.999Z,4.63
2023-03-03T19:15:36.696Z,5.72
2023-03-03T19:18:15.430Z,5.05
2023-03-03T19:20:49.008Z,6.20
2023-03-03T19:23:21.960Z,6.20
2023-03-03T19:26:31.227Z,4.05
2023-03-03T19:29:02.096Z,5.95
2023-03-03T19:31:39.496Z,9.30
2023-03-03T19:34:32.143Z,4.72
2023-03-03T19:37:25.743Z,6.57
2023-03-03T19:40:16.666Z,8.38
2023-03-03T19:43:18.806Z,5.60
2023-03-03T19:46:36.714Z,5.32
2023-03-03T19:49:39.659Z,7.50
2023-03-03T19:52:19.118Z,3.47
2023-03-03T19:55:16.778Z,4.40
2023-03-03T19:58:08.127Z,4.72
2023-03-03T20:01:11.126Z,4.95
2023-03-03T20:03:48.522Z,4.32
2023-03-03T20:06:35.059Z,4.68
2023-03-03T20:10:01.462Z,4.28
2023-03-03T20:15:10.639Z,5.15
2023-03-03T20:17:52.240Z,4.65
2023-03-03T20:21:05.039Z,7.10
2023-03-03T20:23:55.981Z,5.53
2023-03-03T20:26:54.357Z,5.07
2023-03-03T20:29:59.922Z,3.28
2023-03-03T20:32:43.052Z,4.03
2023-03-03T20:35:40.278Z,5.72
2023-03-03T20:38:29.510Z,4.70
2023-03-03T20:41:09.865Z,3.97
2023-03-03T20:44:03.745Z,4.50
2023-03-03T20:46:53.532Z,5.18
2023-03-03T20:49:40.298Z,7.25
2023-03-03T20:52:28.661Z,4.90
2023-03-03T20:55:12.683Z,3.72
2023-03-03T20:58:14.653Z,5.23
2023-03-03T21:00:49.101Z,4.70
2023-03-03T21:03:29.472Z,3.38
2023-03-03T21:06:10.751Z,3.47
2023-03-03T21:08:57.141Z,4.32
2023-03-03T21:11:43.459Z,6.05
2023-03-03T21:14:26.867Z,7.38
2023-03-03T21:16:57.716Z,4.93
2023-03-03T21:19:26.539Z,5.05
2023-03-03T21:21:55.069Z,4.90
2023-03-03T21:24:23.697Z,5.47
2023-03-03T21:27:01.452Z,3.80
2023-03-03T21:29:36.019Z,4.82
2023-03-03T21:34:40.069Z,4.57
2023-03-03T21:37:51.380Z,4.57
2023-03-03T21:40:28.674Z,5.18
2023-03-03T21:43:00.585Z,3.58
2023-03-03T21:45:30.983Z,3.30
2023-03-03T21:48:02.469Z,3.50
2023-03-03T21:50:33.488Z,3.15
2023-03-03T21:53:01.735Z,3.78
2023-03-03T21:55:29.922Z,6.00
2023-03-03T21:57:58.106Z,3.53
2023-03-03T22:00:26.586Z,4.45
2023-03-03T22:02:56.206Z,4.85
2023-03-03T22:05:24.611Z,3.08
2023-03-03T22:07:53.077Z,4.10
2023-03-03T22:10:21.279Z,5.15
2023-03-03T22:12:49.760Z,7.63
2023-03-03T22:15:18.225Z,3.78
2023-03-03T22:17:46.502Z,5.63
2023-03-03T22:20:19.046Z,5.55
2023-03-03T22:22:48.468Z,2.45
2023-03-03T22:25:16.941Z,4.90
2023-03-03T22:27:45.218Z,5.78
2023-03-03T22:30:13.898Z,3.28
2023-03-03T22:32:42.160Z,4.50
2023-03-03T22:35:10.998Z,3.42
2023-03-03T22:37:39.216Z,4.95
2023-03-03T22:40:08.167Z,5.00
2023-03-03T22:42:36.349Z,4.03
2023-03-03T22:45:04.714Z,3.63
2023-03-03T22:47:33.685Z,3.88
2023-03-03T22:50:02.010Z,3.05
2023-03-03T22:52:30.260Z,3.42
2023-03-03T22:54:59.822Z,3.55
2023-03-03T22:57:28.076Z,4.20
2023-03-03T22:59:56.280Z,4.00
2023-03-03T23:02:24.512Z,4.18
2023-03-03T23:04:58.887Z,5.13
2023-03-03T23:07:27.274Z,3.40
2023-03-03T23:09:56.587Z,3.08
2023-03-03T23:12:25.116Z,4.20
2023-03-03T23:14:53.482Z,3.50
2023-03-03T23:17:21.804Z,4.25
2023-03-03T23:19:50.716Z,5.35
2023-03-03T23:22:19.142Z,3.67
2023-03-03T23:24:49.760Z,6.22
2023-03-03T23:27:18.216Z,4.15
2023-03-03T23:29:46.430Z,4.10
2023-03-03T23:32:15.603Z,6.05
2023-03-03T23:34:43.829Z,3.38
2023-03-03T23:37:12.144Z,4.95
2023-03-03T23:39:41.894Z,6.35
2023-03-03T23:42:10.726Z,6.20
2023-03-03T23:44:39.269Z,6.30
2023-03-03T23:47:08.602Z,8.15
2023-03-03T23:49:37.262Z,4.78
2023-03-03T23:52:06.003Z,3.72
2023-03-03T23:54:34.225Z,6.00
2023-03-03T23:57:02.469Z,5.55
2023-03-03T23:59:30.682Z,5.15
